Time;durP1;ratioP1;P1;durP2;ratioP2;P2;SDS_P1;SDS_P2;PMS_P1;PMS_P2;Temp;Humidity;BMP_temperature;BMP_pressure;BME280_temperature;BME280_humidity;BME280_pressure;Samples;Min_cycle;Max_cycle;Signal;HPM_P1;HPM_P2
2023/10/21 00:09:23;;;;;;;0.20;0.20;;;;;;;11.57;75.36;97421.84;21045432;28;20262;-81
2023/10/21 00:19:26;;;;;;;1.53;0.23;;;;;;;11.09;77.21;97424.34;21048575;28;20227;-81
2023/10/21 00:29:28;;;;;;;1.77;0.40;;;;;;;11.36;76.18;97427.53;21037820;28;20309;-81
2023/10/21 00:39:34;;;;;;;0.60;0.30;;;;;;;11.31;76.12;97434.38;21064152;28;20314;-81
2023/10/21 00:49:36;;;;;;;0.40;0.20;;;;;;;11.07;78.20;97441.66;21048255;28;20225;-81
2023/10/21 00:59:41;;;;;;;0.90;0.33;;;;;;;11.33;77.16;97448.06;21023087;28;20231;-84
2023/10/21 01:09:42;;;;;;;4.13;0.40;;;;;;;11.56;77.09;97454.06;21031577;28;20354;-82
2023/10/21 01:19:46;;;;;;;0.20;0.20;;;;;;;11.35;77.74;97446.44;21034780;28;20558;-81
2023/10/21 01:29:49;;;;;;;0.47;0.30;;;;;;;11.38;77.99;97454.09;21054726;28;20310;-81
2023/10/21 01:39:50;;;;;;;0.93;0.30;;;;;;;11.91;75.60;97473.72;21048492;28;20633;-83
2023/10/21 01:49:54;;;;;;;1.60;0.47;;;;;;;12.25;74.97;97482.44;21032866;28;20220;-81
2023/10/21 01:59:56;;;;;;;1.07;0.30;;;;;;;11.96;76.04;97486.56;21033017;28;20209;-86
2023/10/21 02:09:59;;;;;;;0.63;0.23;;;;;;;12.21;75.28;97506.25;21067202;28;20225;-81
2023/10/21 02:20:01;;;;;;;1.20;0.20;;;;;;;12.09;77.66;97507.47;21076466;28;20243;-80
2023/10/21 02:30:05;;;;;;;0.30;0.20;;;;;;;12.18;78.78;97524.75;21071680;28;20218;-86
2023/10/21 02:40:09;;;;;;;0.50;0.50;;;;;;;12.51;78.04;97545.19;21053467;28;20233;-79
2023/10/21 02:50:12;;;;;;;0.50;0.40;;;;;;;12.36;79.22;97555.69;21049134;28;20229;-78
2023/10/21 03:00:17;;;;;;;0.53;0.40;;;;;;;12.40;79.45;97566.97;21043463;28;20195;-79
2023/10/21 03:10:22;;;;;;;1.13;0.40;;;;;;;12.37;79.59;97579.06;21049827;28;20221;-79
2023/10/21 03:20:25;;;;;;;0.47;0.47;;;;;;;11.46;84.13;97604.09;21060298;28;20199;-82
2023/10/21 03:30:30;;;;;;;1.43;0.20;;;;;;;11.62;84.67;97617.84;21058365;28;20288;-79
2023/10/21 03:40:31;;;;;;;0.83;0.40;;;;;;;11.94;83.00;97635.56;21035909;28;20214;-84
2023/10/21 03:50:34;;;;;;;1.53;0.40;;;;;;;11.81;83.53;97665.34;21024357;28;20661;-79
2023/10/21 04:00:36;;;;;;;2.27;0.50;;;;;;;11.74;84.32;97683.03;21029537;28;20235;-79
2023/10/21 04:10:39;;;;;;;0.88;0.52;;;;;;;11.85;83.06;97705.56;21027273;28;20222;-82
2023/10/21 04:20:41;;;;;;;0.70;0.30;;;;;;;11.83;83.73;97724.88;21023358;28;20203;-79
2023/10/21 04:30:45;;;;;;;3.40;0.50;;;;;;;11.76;84.56;97753.06;21043059;28;20222;-79
2023/10/21 04:40:47;;;;;;;0.50;0.50;;;;;;;11.80;84.78;97765.97;21062301;28;20218;-79
2023/10/21 04:50:50;;;;;;;0.57;0.43;;;;;;;11.88;84.00;97783.69;21032636;28;20643;-79
2023/10/21 05:00:52;;;;;;;0.93;0.80;;;;;;;12.24;82.13;97802.25;21032454;28;20194;-87
2023/10/21 05:10:55;;;;;;;1.73;0.60;;;;;;;11.94;83.87;97832.00;21032858;28;20297;-78
2023/10/21 05:20:57;;;;;;;0.60;0.50;;;;;;;12.00;84.05;97855.78;21037912;28;20550;-79
2023/10/21 05:31:02;;;;;;;2.00;0.77;;;;;;;11.79;84.65;97870.63;21038686;28;20508;-85
2023/10/21 05:41:04;;;;;;;2.17;1.20;;;;;;;12.06;83.82;97897.28;21021865;28;20284;-78
2023/10/21 05:51:07;;;;;;;1.63;1.20;;;;;;;11.66;85.76;97903.97;21053075;28;20574;-82
2023/10/21 06:01:10;;;;;;;1.20;1.10;;;;;;;12.07;84.06;97929.09;21051972;28;20285;-80
2023/10/21 06:11:15;;;;;;;1.33;1.05;;;;;;;11.84;84.60;97947.09;21029583;28;20223;-80
2023/10/21 06:21:16;;;;;;;4.50;1.30;;;;;;;11.70;85.55;97965.94;21051824;28;20212;-79
2023/10/21 06:31:19;;;;;;;2.73;1.33;;;;;;;11.36;86.49;98001.91;21044139;28;20223;-78
2023/10/21 06:41:21;;;;;;;1.60;1.37;;;;;;;11.14;88.00;98015.03;21048861;28;20649;-79
2023/10/21 06:51:24;;;;;;;2.37;1.30;;;;;;;11.40;85.85;98040.16;21041765;28;20326;-80
2023/10/21 07:01:27;;;;;;;3.17;1.20;;;;;;;11.65;85.00;98064.94;21037884;28;20228;-79
2023/10/21 07:11:30;;;;;;;5.73;0.87;;;;;;;11.74;84.58;98065.38;21043300;28;20281;-79
2023/10/21 07:21:32;;;;;;;1.23;0.60;;;;;;;11.37;85.60;98091.63;21036743;28;20202;-79
2023/10/21 07:31:35;;;;;;;1.03;0.40;;;;;;;11.42;85.84;98118.63;21040610;28;20219;-81
2023/10/21 07:41:37;;;;;;;0.87;0.30;;;;;;;11.87;83.60;98135.13;20996702;28;20219;-84
2023/10/21 07:51:41;;;;;;;4.30;0.30;;;;;;;11.91;82.61;98144.44;20963183;28;20229;-86
2023/10/21 08:01:43;;;;;;;1.53;0.20;;;;;;;12.14;80.56;98158.28;20950925;28;20226;-85
2023/10/21 08:11:46;;;;;;;0.37;0.20;;;;;;;12.20;81.11;98187.75;20967580;28;20215;-86
2023/10/21 08:21:48;;;;;;;1.07;0.20;;;;;;;12.17;79.90;98218.72;20959545;28;20249;-81
2023/10/21 08:31:51;;;;;;;0.45;0.10;;;;;;;12.52;76.79;98237.94;20956588;28;20309;-90
2023/10/21 08:41:53;;;;;;;1.60;0.07;;;;;;;12.74;74.79;98253.78;20978627;28;20840;-81
2023/10/21 08:52:03;;;;;;;0.93;0.00;;;;;;;12.42;73.76;98267.66;20986154;28;20493;-89
2023/10/21 09:02:05;;;;;;;0.20;0.10;;;;;;;12.78;69.25;98282.84;20974381;28;20576;-83
2023/10/21 09:12:11;;;;;;;0.95;0.10;;;;;;;12.69;68.24;98318.25;20974577;28;20233;-83
2023/10/21 09:22:21;;;;;;;0.47;0.10;;;;;;;12.66;66.50;98324.69;20965494;28;20202;-85
2023/10/21 09:32:29;;;;;;;0.50;0.10;;;;;;;12.57;67.00;98351.25;20972960;28;20227;-85
2023/10/21 09:42:31;;;;;;;1.88;0.00;;;;;;;12.80;66.11;98356.66;21029420;28;20223;-88
2023/10/21 09:52:45;;;;;;;0.63;0.10;;;;;;;12.48;66.03;98366.81;21075273;28;20218;-87
2023/10/21 10:02:48;;;;;;;0.55;0.10;;;;;;;13.14;63.12;98379.06;21058317;28;20209;-82
2023/10/21 10:12:54;;;;;;;0.57;0.00;;;;;;;13.13;62.72;98378.25;21076276;28;20214;-88
2023/10/21 10:23:04;;;;;;;2.00;0.10;;;;;;;12.85;61.14;98407.09;21076087;28;20201;-84
2023/10/21 10:33:12;;;;;;;0.10;0.10;;;;;;;12.80;60.50;98432.84;21060380;28;20217;-87
2023/10/21 10:43:15;;;;;;;0.28;0.00;;;;;;;13.38;58.95;98423.66;21008926;28;20229;-91
2023/10/21 10:53:20;;;;;;;1.00;0.07;;;;;;;13.24;58.76;98434.81;20964758;28;20309;-81
2023/10/21 11:03:26;;;;;;;0.30;0.10;;;;;;;13.59;57.48;98434.25;20974862;28;20639;-81
2023/10/21 11:13:30;;;;;;;1.77;0.20;;;;;;;13.67;56.19;98453.66;20968089;28;20222;-80
2023/10/21 11:23:32;;;;;;;0.90;0.20;;;;;;;13.34;56.83;98459.50;20967977;28;20341;-89
2023/10/21 11:33:35;;;;;;;0.47;0.20;;;;;;;13.56;54.72;98452.81;20957231;28;20309;-82
2023/10/21 11:43:37;;;;;;;2.10;0.27;;;;;;;12.95;56.12;98481.78;21024274;28;20215;-90
2023/10/21 11:53:44;;;;;;;1.67;0.20;;;;;;;13.80;54.97;98501.38;21036958;28;20223;-81
2023/10/21 12:25:00;;;;;;;2.53;0.30;;;;;;;13.19;56.05;98514.25;21043496;28;20236;-89
2023/10/21 12:35:30;;;;;;;0.77;0.22;;;;;;;14.14;52.83;98518.94;21075176;28;20662;-91
2023/10/21 12:45:35;;;;;;;2.45;0.20;;;;;;;13.87;52.19;98524.06;21097267;28;20698;-87
2023/10/21 12:55:39;;;;;;;2.93;0.30;;;;;;;13.87;50.98;98507.09;21080837;28;20222;-85
2023/10/21 13:05:43;;;;;;;1.50;0.30;;;;;;;13.78;48.65;98509.44;21067597;28;20210;-89
2023/10/21 13:15:47;;;;;;;1.02;0.28;;;;;;;13.65;47.65;98518.25;21076713;28;20213;-86
2023/10/21 13:25:49;;;;;;;4.07;1.50;;;;;;;14.45;46.18;98509.78;21059795;28;20206;-88
2023/10/21 13:35:54;;;;;;;5.40;0.77;;;;;;;13.64;45.22;98535.63;21046030;28;20519;-89
2023/10/21 13:45:56;;;;;;;2.50;0.68;;;;;;;14.03;46.16;98533.03;21052922;28;20226;-89
2023/10/21 13:55:59;;;;;;;3.35;0.75;;;;;;;13.91;46.11;98530.53;21072346;28;20256;-87
2023/10/21 14:06:04;;;;;;;2.65;0.38;;;;;;;14.37;46.04;98542.94;21060618;28;20220;-90
2023/10/21 14:16:11;;;;;;;3.67;0.50;;;;;;;13.82;47.04;98556.34;21069435;28;20203;-81
2023/10/21 14:26:14;;;;;;;1.10;0.35;;;;;;;13.34;46.85;98575.31;21060591;28;20202;-78
2023/10/21 14:36:19;;;;;;;2.45;0.75;;;;;;;13.38;45.79;98584.69;21070497;28;20673;-81
2023/10/21 14:46:22;;;;;;;5.80;0.50;;;;;;;13.55;46.53;98592.47;21061836;28;20226;-85
2023/10/21 14:56:26;;;;;;;2.50;0.57;;;;;;;13.53;46.32;98600.53;21051614;28;20214;-80
2023/10/21 15:06:30;;;;;;;1.90;0.45;;;;;;;13.91;46.33;98589.91;21060772;28;20593;-79
2023/10/21 15:16:33;;;;;;;4.22;0.30;;;;;;;13.97;45.82;98594.00;21039658;28;20199;-79
2023/10/21 15:26:35;;;;;;;3.15;0.50;;;;;;;13.03;48.36;98598.41;21073540;28;20528;-79
2023/10/21 15:36:38;;;;;;;0.77;0.50;;;;;;;13.19;48.12;98613.13;21070594;28;20205;-79
2023/10/21 15:46:40;;;;;;;2.50;0.80;;;;;;;12.74;48.79;98631.97;20966170;28;20230;-80
2023/10/21 15:56:43;;;;;;;3.37;0.60;;;;;;;12.63;49.13;98648.78;20972868;28;20306;-81
2023/10/21 16:06:45;;;;;;;3.07;0.60;;;;;;;13.12;47.90;98673.19;20957351;28;20228;-79
2023/10/21 16:16:48;;;;;;;2.58;0.70;;;;;;;13.07;48.51;98684.00;20965369;28;20195;-81
2023/10/21 16:26:50;;;;;;;3.80;0.70;;;;;;;12.91;48.45;98676.53;20960577;28;20305;-80
2023/10/21 16:36:53;;;;;;;2.92;0.40;;;;;;;12.59;49.55;98686.63;20972714;28;20203;-81
2023/10/21 16:46:55;;;;;;;3.23;0.50;;;;;;;12.86;49.60;98707.94;21079637;28;20309;-85
2023/10/21 16:56:59;;;;;;;2.87;0.40;;;;;;;12.51;51.15;98696.16;21065218;28;20225;-83
2023/10/21 17:07:00;;;;;;;3.03;0.57;;;;;;;12.21;52.38;98694.09;21040266;28;20218;-83
2023/10/21 17:17:04;;;;;;;5.30;0.70;;;;;;;12.08;53.58;98718.09;21064142;28;20257;-82
2023/10/21 17:27:06;;;;;;;4.00;0.40;;;;;;;11.94;52.91;98728.31;21066061;28;20246;-89
2023/10/21 17:37:09;;;;;;;2.60;0.93;;;;;;;12.19;52.31;98730.34;21086485;28;20245;-88
2023/10/21 17:47:11;;;;;;;2.87;0.70;;;;;;;12.16;51.87;98738.75;21061127;28;20229;-92
2023/10/21 17:57:15;;;;;;;6.80;0.50;;;;;;;12.10;53.07;98745.88;21061535;28;20218;-81
2023/10/21 18:07:16;;;;;;;3.03;0.50;;;;;;;11.84;53.07;98744.66;21060136;28;20309;-89
2023/10/21 18:17:20;;;;;;;3.00;0.50;;;;;;;11.79;52.86;98742.16;21062507;28;20210;-92
2023/10/21 18:27:21;;;;;;;7.43;3.23;;;;;;;11.60;53.47;98755.47;21050517;28;20226;-81
2023/10/21 18:37:25;;;;;;;5.33;2.20;;;;;;;11.63;53.90;98763.19;21055960;28;20223;-93
2023/10/21 18:47:27;;;;;;;5.00;1.93;;;;;;;11.61;53.36;98759.94;20985631;28;20265;-93
2023/10/21 18:57:30;;;;;;;3.47;1.00;;;;;;;11.97;52.52;98762.19;20962797;28;20265;-91
2023/10/21 19:07:32;;;;;;;4.50;0.50;;;;;;;11.62;53.06;98765.19;20957051;28;20571;-88
2023/10/21 19:17:36;;;;;;;2.30;0.63;;;;;;;11.81;53.03;98776.44;20981020;28;20208;-90
2023/10/21 19:27:37;;;;;;;4.57;0.52;;;;;;;11.97;52.34;98783.91;20983614;28;20247;-84
2023/10/21 19:37:48;;;;;;;2.13;0.40;;;;;;;11.62;53.42;98786.91;20971012;28;20321;-85
2023/10/21 19:47:50;;;;;;;2.17;0.53;;;;;;;11.52;53.19;98800.41;21043652;28;20349;-81
2023/10/21 19:57:53;;;;;;;3.67;0.43;;;;;;;12.23;51.39;98787.59;21054117;28;20286;-83
2023/10/21 20:07:59;;;;;;;4.07;0.50;;;;;;;11.75;53.17;98796.81;21060857;28;20210;-92
2023/10/21 20:18:02;;;;;;;3.35;0.68;;;;;;;11.47;53.71;98803.50;21039053;28;20217;-85
2023/10/21 20:28:04;;;;;;;1.53;0.50;;;;;;;11.85;53.02;98799.81;21054693;28;20226;-82
2023/10/21 20:38:10;;;;;;;2.03;0.37;;;;;;;11.42;54.00;98809.47;21025030;28;20651;-82
2023/10/21 20:48:12;;;;;;;3.23;0.50;;;;;;;11.71;53.44;98807.19;20977947;28;20249;-86
2023/10/21 20:58:15;;;;;;;1.60;0.40;;;;;;;11.32;55.33;98817.66;20994883;28;20217;-83
2023/10/21 21:08:17;;;;;;;3.60;0.30;;;;;;;11.50;53.66;98824.47;20982092;28;20222;-82
2023/10/21 21:18:20;;;;;;;3.70;0.30;;;;;;;11.72;53.14;98840.66;20984408;28;20574;-82
2023/10/21 21:28:22;;;;;;;4.13;0.35;;;;;;;11.44;54.97;98835.22;20973764;28;20309;-82
2023/10/21 21:38:25;;;;;;;4.60;0.32;;;;;;;11.74;53.21;98829.00;20981693;28;20242;-81
2023/10/21 21:48:27;;;;;;;2.63;0.30;;;;;;;11.27;53.62;98835.69;20973833;28;20219;-90
2023/10/21 21:58:31;;;;;;;1.90;0.33;;;;;;;11.57;53.38;98831.06;20982961;28;20464;-83
2023/10/21 22:08:33;;;;;;;0.70;0.20;;;;;;;11.54;53.05;98840.28;20990669;28;20214;-83
2023/10/21 22:18:36;;;;;;;3.23;0.40;;;;;;;11.07;54.75;98836.84;20986643;28;20218;-81
2023/10/21 22:28:39;;;;;;;1.52;0.40;;;;;;;11.23;55.18;98842.41;20980421;28;20233;-80
2023/10/21 22:38:43;;;;;;;3.97;0.30;;;;;;;11.09;54.50;98848.56;20991834;28;20466;-81
2023/10/21 22:48:46;;;;;;;3.13;0.27;;;;;;;11.04;54.69;98855.31;21018063;28;20284;-82
2023/10/21 22:58:49;;;;;;;1.57;0.30;;;;;;;11.43;54.21;98860.97;21002741;28;20198;-90
2023/10/21 23:08:53;;;;;;;2.90;0.40;;;;;;;11.43;54.48;98866.59;21001833;28;20223;-83
2023/10/21 23:18:56;;;;;;;4.20;0.30;;;;;;;11.48;53.86;98881.19;21010415;28;20200;-81
2023/10/21 23:28:58;;;;;;;1.73;0.17;;;;;;;11.35;54.65;98865.63;21009838;28;20214;-81
2023/10/21 23:39:01;;;;;;;4.10;0.10;;;;;;;11.31;54.72;98880.81;21014891;28;20231;-89
2023/10/21 23:49:03;;;;;;;2.70;0.30;;;;;;;11.53;53.96;98895.00;20966163;28;20224;-81
2023/10/21 23:59:06;;;;;;;1.60;0.10;;;;;;;11.81;53.47;98902.44;20963466;28;20219;-81
